Terminal Aerodrome Forecast
Issued by NWS

Home | Current Version | Previous Version | Text Only | Print | Product List | Glossary Off
Versions: 1 2 3 4 5 6 7 8 9 10 11 12 13 14 15 16 17 18 19 20 21 22 23

000
FTUS45 KGGW 270520
TAFGDV
TAF
KGDV 270520Z 2706/2806 16013KT P6SM SCT110 WS020/17040KT
     FM271000 16007KT P6SM SCT110 WS020/20035KT
     FM271300 16006KT P6SM SCT180
     FM271700 28015KT P6SM SCT110
     FM280500 32011KT P6SM SCT090=

USA.gov is the U.S. government's official web portal to all federal, state and local government web resources and services.